createdAt,value
2024-03-04T00:00:13.657Z,0.00
2024-03-04T00:00:36.917Z,0.00
2024-03-04T00:01:09.137Z,0.00
2024-03-04T00:01:45.350Z,0.00
2024-03-04T00:02:10.399Z,0.00
2024-03-04T00:03:17.241Z,0.00
2024-03-04T00:03:39.777Z,0.00
2024-03-04T00:04:06.809Z,0.00
2024-03-04T00:05:11.328Z,0.00
2024-03-04T00:05:44.018Z,0.00
2024-03-04T00:06:14.388Z,0.00
2024-03-04T00:06:36.889Z,0.00
2024-03-04T00:07:02.689Z,0.00
2024-03-04T00:07:33.450Z,0.00
2024-03-04T00:08:05.200Z,0.00
2024-03-04T00:08:41.317Z,0.00
2024-03-04T00:09:13.696Z,0.00
2024-03-04T00:09:43.386Z,0.00
2024-03-04T00:10:19.239Z,0.00
2024-03-04T00:10:48.257Z,0.00
2024-03-04T00:11:10.800Z,0.00
2024-03-04T00:11:34.972Z,0.00
2024-03-04T00:12:05.162Z,0.00
2024-03-04T00:12:42.022Z,0.00
2024-03-04T00:13:03.475Z,0.00
2024-03-04T00:13:41.180Z,0.00
2024-03-04T00:14:12.674Z,0.00
2024-03-04T00:14:35.848Z,0.00
2024-03-04T00:15:02.419Z,0.00
2024-03-04T00:15:34.552Z,0.00
2024-03-04T00:16:06.867Z,0.00
2024-03-04T00:16:36.955Z,0.00
2024-03-04T00:17:10.488Z,0.00
2024-03-04T00:17:42.066Z,0.00
2024-03-04T00:18:13.552Z,0.00
2024-03-04T00:18:35.914Z,0.00
2024-03-04T00:18:58.292Z,0.00
2024-03-04T00:19:32.841Z,0.00
2024-03-04T00:20:09.153Z,0.00
2024-03-04T00:20:36.868Z,0.00
2024-03-04T00:21:08.771Z,0.00
2024-03-04T00:21:45.034Z,0.00
2024-03-04T00:22:12.784Z,0.00
2024-03-04T00:22:45.929Z,0.00
2024-03-04T00:23:17.319Z,0.00
2024-03-04T00:23:39.929Z,0.00
2024-03-04T00:24:06.229Z,0.00
2024-03-04T00:24:37.197Z,0.00
2024-03-04T00:25:09.131Z,0.00
2024-03-04T00:25:45.971Z,0.00
2024-03-04T00:26:07.166Z,0.00
2024-03-04T00:26:39.638Z,0.00
2024-03-04T00:27:16.986Z,0.00
2024-03-04T00:28:03.110Z,0.00
2024-03-04T00:28:36.930Z,0.00
2024-03-04T00:29:13.432Z,0.00
2024-03-04T00:29:48.808Z,0.00
2024-03-04T00:30:12.890Z,0.00
2024-03-04T00:30:36.266Z,0.00
2024-03-04T00:30:58.546Z,0.00
2024-03-04T00:31:34.159Z,0.00
2024-03-04T00:32:36.879Z,0.00
2024-03-04T00:33:08.893Z,0.00
2024-03-04T00:33:40.809Z,0.00
2024-03-04T00:34:12.861Z,0.00
2024-03-04T00:34:36.076Z,0.00
2024-03-04T00:34:58.087Z,0.00
2024-03-04T00:35:34.204Z,0.00
2024-03-04T00:36:05.202Z,0.00
2024-03-04T00:36:36.751Z,0.00
2024-03-04T00:37:13.006Z,0.00
2024-03-04T00:37:42.208Z,0.00
2024-03-04T00:38:12.852Z,0.00
2024-03-04T00:38:37.422Z,0.00
2024-03-04T00:38:59.852Z,0.00
2024-03-04T00:39:34.114Z,0.00
2024-03-04T00:40:04.928Z,0.00
2024-03-04T00:40:43.225Z,0.00
2024-03-04T00:41:10.035Z,0.00
2024-03-04T00:41:45.115Z,0.00
2024-03-04T00:42:12.828Z,0.00
2024-03-04T00:42:35.645Z,0.00
2024-03-04T00:43:02.397Z,0.00
2024-03-04T00:43:34.166Z,0.00
2024-03-04T00:44:04.566Z,0.00
2024-03-04T00:44:45.190Z,0.00
2024-03-04T00:45:25.082Z,0.00
2024-03-04T00:45:47.950Z,0.00
2024-03-04T00:46:10.441Z,0.00
2024-03-04T00:46:39.989Z,0.00
2024-03-04T00:47:16.952Z,0.00
2024-03-04T00:47:46.201Z,0.00
2024-03-04T00:48:03.211Z,0.00
2024-03-04T00:48:36.968Z,0.00
2024-03-04T00:49:08.994Z,0.00
2024-03-04T00:49:40.772Z,0.00
2024-03-04T00:50:17.629Z,0.00
2024-03-04T00:50:38.114Z,0.00
2024-03-04T00:51:00.703Z,0.00
2024-03-04T00:51:37.175Z,0.00
2024-03-04T00:52:36.942Z,0.00
2024-03-04T00:53:09.249Z,0.00
2024-03-04T00:53:42.848Z,0.00
2024-03-04T00:54:12.642Z,0.00
2024-03-04T00:54:37.226Z,0.00
2024-03-04T00:54:58.301Z,0.00
2024-03-04T00:55:34.278Z,0.00
2024-03-04T00:56:06.002Z,0.00
2024-03-04T00:56:36.644Z,0.00
2024-03-04T00:57:13.297Z,0.00
2024-03-04T00:57:46.181Z,0.00
2024-03-04T00:58:12.931Z,0.00
2024-03-04T00:58:35.447Z,0.00
2024-03-04T00:59:02.227Z,0.00
2024-03-04T00:59:32.684Z,0.00
2024-03-04T01:00:05.277Z,0.00
2024-03-04T01:00:36.944Z,0.00
2024-03-04T01:01:09.021Z,0.00
2024-03-04T01:01:40.648Z,0.00
2024-03-04T01:02:14.103Z,0.00
2024-03-04T01:02:35.872Z,0.00
2024-03-04T01:02:58.420Z,0.00
2024-03-04T01:03:32.913Z,0.00
2024-03-04T01:04:36.958Z,0.00
2024-03-04T01:05:11.129Z,0.00
2024-03-04T01:05:40.229Z,0.00
2024-03-04T01:06:17.932Z,0.00
2024-03-04T01:06:37.890Z,0.00
2024-03-04T01:06:59.751Z,0.00
2024-03-04T01:07:34.187Z,0.00
2024-03-04T01:08:04.972Z,0.00
2024-03-04T01:08:36.651Z,0.00
2024-03-04T01:09:10.103Z,0.00
2024-03-04T01:09:40.840Z,0.00
2024-03-04T01:10:37.184Z,0.00
2024-03-04T01:10:59.425Z,0.00
2024-03-04T01:11:38.376Z,0.00
2024-03-04T01:12:06.085Z,0.00
2024-03-04T01:12:36.449Z,0.00
2024-03-04T01:13:11.258Z,0.00
2024-03-04T01:13:41.062Z,0.00
2024-03-04T01:14:13.884Z,0.00
2024-03-04T01:14:36.736Z,0.00
2024-03-04T01:15:00.826Z,0.00
2024-03-04T01:15:34.257Z,0.00
2024-03-04T01:16:05.209Z,0.00
2024-03-04T01:16:38.583Z,0.00
2024-03-04T01:17:10.401Z,0.00
2024-03-04T01:17:49.578Z,0.00
2024-03-04T01:18:13.247Z,0.00
2024-03-04T01:18:35.959Z,0.00
2024-03-04T01:19:03.303Z,0.00
2024-03-04T01:19:33.681Z,0.00
2024-03-04T01:20:04.741Z,0.00
2024-03-04T01:20:38.902Z,0.00
2024-03-04T01:21:09.241Z,0.00
2024-03-04T01:21:43.419Z,0.00
2024-03-04T01:22:14.721Z,0.00
2024-03-04T01:22:36.167Z,0.00
2024-03-04T01:22:59.042Z,0.00
2024-03-04T01:23:33.113Z,0.00
2024-03-04T01:24:05.989Z,0.00
2024-03-04T01:24:37.959Z,0.00
2024-03-04T01:25:09.494Z,0.00
2024-03-04T01:25:43.498Z,0.00
2024-03-04T01:26:14.990Z,0.00
2024-03-04T01:26:37.817Z,0.00
2024-03-04T01:26:58.921Z,0.00
2024-03-04T01:27:36.884Z,0.00
2024-03-04T01:28:05.743Z,0.00
2024-03-04T01:28:37.361Z,0.00
2024-03-04T01:29:15.025Z,0.00
2024-03-04T01:29:46.607Z,0.00
2024-03-04T01:30:13.589Z,0.00
2024-03-04T01:30:35.444Z,0.00
2024-03-04T01:30:58.246Z,0.00
2024-03-04T01:31:34.274Z,0.00
2024-03-04T01:32:04.726Z,0.00
2024-03-04T01:32:37.227Z,0.00
2024-03-04T01:33:09.131Z,0.00
2024-03-04T01:33:41.119Z,0.00
2024-03-04T01:34:17.744Z,0.00
2024-03-04T01:34:40.681Z,0.00
2024-03-04T01:34:58.765Z,0.00
2024-03-04T01:35:32.977Z,0.00
2024-03-04T01:36:05.239Z,0.00
2024-03-04T01:36:37.616Z,0.00
2024-03-04T01:37:13.294Z,0.00
2024-03-04T01:37:41.904Z,0.00
2024-03-04T01:38:12.876Z,0.00
2024-03-04T01:38:36.018Z,0.00
2024-03-04T01:38:58.634Z,0.00
2024-03-04T01:39:34.077Z,0.00
2024-03-04T01:40:06.688Z,0.00
2024-03-04T01:40:37.472Z,0.00
2024-03-04T01:41:09.115Z,0.00
2024-03-04T01:41:44.501Z,0.00
2024-03-04T01:42:11.501Z,0.00
2024-03-04T01:42:39.932Z,0.00
2024-03-04T01:43:16.796Z,0.00
2024-03-04T01:43:41.688Z,0.00
2024-03-04T01:44:03.613Z,0.00
2024-03-04T01:44:41.111Z,0.00
2024-03-04T01:45:09.234Z,0.00
2024-03-04T01:45:40.695Z,0.00
2024-03-04T01:46:17.017Z,0.00
2024-03-04T01:46:40.004Z,0.00
2024-03-04T01:46:58.133Z,0.00
2024-03-04T01:47:37.108Z,0.00
2024-03-04T01:48:04.664Z,0.00
2024-03-04T01:48:36.715Z,0.00
2024-03-04T01:49:10.114Z,0.00
2024-03-04T01:49:40.875Z,0.00
2024-03-04T01:50:12.784Z,0.00
2024-03-04T01:50:42.412Z,0.00
2024-03-04T01:51:01.348Z,0.00
2024-03-04T01:51:38.013Z,0.00
2024-03-04T01:52:08.222Z,0.00
2024-03-04T01:52:36.845Z,0.00
2024-03-04T01:53:09.196Z,0.00
2024-03-04T01:53:40.623Z,0.00
2024-03-04T01:54:12.818Z,0.00
2024-03-04T01:54:35.638Z,0.00
2024-03-04T01:54:58.058Z,0.00
2024-03-04T01:55:32.816Z,0.00
2024-03-04T01:56:05.299Z,0.00
2024-03-04T01:56:40.982Z,0.00
2024-03-04T01:57:08.754Z,0.00
2024-03-04T01:57:46.014Z,0.00
2024-03-04T01:58:08.419Z,0.00
2024-03-04T01:58:40.679Z,0.00
2024-03-04T01:59:23.758Z,0.00
2024-03-04T01:59:40.590Z,0.00
2024-03-04T02:00:04.122Z,0.00
2024-03-04T02:00:38.043Z,0.00
2024-03-04T02:01:09.141Z,0.00
2024-03-04T02:01:41.131Z,0.00
2024-03-04T02:02:17.281Z,0.00
2024-03-04T02:02:37.024Z,0.00
2024-03-04T02:03:02.598Z,0.00
2024-03-04T02:03:33.070Z,0.00
2024-03-04T02:04:04.708Z,0.00
2024-03-04T02:04:38.469Z,0.00
2024-03-04T02:05:09.079Z,0.00
2024-03-04T02:05:40.736Z,0.00
2024-03-04T02:06:12.970Z,0.00
2024-03-04T02:06:35.623Z,0.00
2024-03-04T02:06:59.401Z,0.00
2024-03-04T02:07:37.336Z,0.00
2024-03-04T02:08:11.942Z,0.00
2024-03-04T02:08:34.248Z,0.00
2024-03-04T02:09:10.385Z,0.00
2024-03-04T02:09:40.750Z,0.00
2024-03-04T02:10:12.792Z,0.00
2024-03-04T02:10:37.211Z,0.00
2024-03-04T02:11:00.841Z,0.00
2024-03-04T02:11:34.008Z,0.00
2024-03-04T02:12:04.813Z,0.00
2024-03-04T02:12:36.874Z,0.00
2024-03-04T02:13:08.905Z,0.00
2024-03-04T02:13:40.942Z,0.00
2024-03-04T02:14:12.842Z,0.00
2024-03-04T02:14:35.911Z,0.00
2024-03-04T02:14:57.979Z,0.00
2024-03-04T02:15:32.896Z,0.00
2024-03-04T02:16:04.988Z,0.00
2024-03-04T02:16:37.021Z,0.00
2024-03-04T02:17:10.306Z,0.00
2024-03-04T02:18:12.737Z,0.00
2024-03-04T02:18:39.832Z,0.00
2024-03-04T02:18:57.952Z,0.00
2024-03-04T02:19:34.208Z,0.00
2024-03-04T02:20:04.704Z,0.00
2024-03-04T02:20:36.906Z,0.00
2024-03-04T02:21:08.832Z,0.00
2024-03-04T02:21:40.802Z,0.00
2024-03-04T02:22:13.007Z,0.00
2024-03-04T02:22:35.810Z,0.00
2024-03-04T02:22:59.188Z,0.00
2024-03-04T02:23:32.520Z,0.00
2024-03-04T02:24:04.625Z,0.00
2024-03-04T02:24:37.093Z,0.00
2024-03-04T02:25:13.372Z,0.00
2024-03-04T02:25:40.852Z,0.00
2024-03-04T02:26:12.740Z,0.00
2024-03-04T02:26:38.353Z,0.00
2024-03-04T02:27:00.593Z,0.00
2024-03-04T02:27:37.003Z,0.00
2024-03-04T02:28:06.039Z,0.00
2024-03-04T02:28:36.973Z,0.00
2024-03-04T02:29:10.110Z,0.00
2024-03-04T02:29:40.734Z,0.00
2024-03-04T02:30:12.792Z,0.00
2024-03-04T02:30:37.945Z,0.00
2024-03-04T02:30:58.939Z,0.00
2024-03-04T02:31:37.177Z,0.00
2024-03-04T02:32:04.734Z,0.00
2024-03-04T02:32:36.741Z,0.00
2024-03-04T02:33:08.977Z,0.00
2024-03-04T02:33:40.827Z,0.00
2024-03-04T02:34:12.488Z,0.00
2024-03-04T02:34:35.600Z,0.00
2024-03-04T02:35:02.188Z,0.00
2024-03-04T02:35:34.110Z,0.00
2024-03-04T02:35:58.624Z,0.00
2024-03-04T02:36:38.513Z,0.00
2024-03-04T02:37:10.165Z,0.00
2024-03-04T02:37:41.619Z,0.00
2024-03-04T02:38:17.524Z,0.00
2024-03-04T02:38:35.752Z,0.00
2024-03-04T02:39:01.314Z,0.00
2024-03-04T02:39:34.504Z,0.00
2024-03-04T02:40:04.994Z,0.00
2024-03-04T02:40:42.351Z,0.00
2024-03-04T02:41:10.406Z,0.00
2024-03-04T02:41:45.290Z,0.00
2024-03-04T02:42:14.623Z,0.00
2024-03-04T02:42:36.029Z,0.00
2024-03-04T02:43:00.431Z,0.00
2024-03-04T02:43:34.315Z,0.00
2024-03-04T02:44:05.308Z,0.00
2024-03-04T02:44:37.119Z,0.00
2024-03-04T02:45:09.073Z,0.00
2024-03-04T02:45:40.937Z,0.00
2024-03-04T02:46:16.709Z,0.00
2024-03-04T02:46:37.552Z,0.00
2024-03-04T02:46:59.745Z,0.00
2024-03-04T02:47:37.571Z,0.00
2024-03-04T02:48:09.466Z,0.00
2024-03-04T02:48:30.950Z,0.00
2024-03-04T02:49:08.749Z,0.00
2024-03-04T02:49:40.931Z,0.00
2024-03-04T02:50:12.660Z,0.00
2024-03-04T02:50:36.119Z,0.00
2024-03-04T02:50:58.221Z,0.00
2024-03-04T02:51:34.062Z,0.00
2024-03-04T02:52:06.028Z,0.00
2024-03-04T02:52:36.995Z,0.00
2024-03-04T02:53:09.024Z,0.00
2024-03-04T02:53:40.884Z,0.00
2024-03-04T02:54:12.944Z,0.00
2024-03-04T02:54:36.546Z,0.00
2024-03-04T02:54:58.128Z,0.00
2024-03-04T02:55:33.964Z,0.00
2024-03-04T02:56:05.163Z,0.00
2024-03-04T02:56:36.529Z,0.00
2024-03-04T02:57:10.152Z,0.00
2024-03-04T02:57:41.938Z,0.00
2024-03-04T02:58:12.971Z,0.00
2024-03-04T02:58:35.347Z,0.00
2024-03-04T02:58:57.849Z,0.00
2024-03-04T02:59:32.737Z,0.00
2024-03-04T03:00:04.845Z,0.00
2024-03-04T03:00:45.368Z,0.00
2024-03-04T03:01:47.607Z,0.00
2024-03-04T03:02:17.873Z,0.00
2024-03-04T03:02:39.760Z,0.00
2024-03-04T03:03:17.504Z,0.00
2024-03-04T03:03:41.191Z,0.00
2024-03-04T03:04:03.714Z,0.00
2024-03-04T03:04:36.852Z,0.00
2024-03-04T03:05:08.739Z,0.00
2024-03-04T03:05:40.538Z,0.00
2024-03-04T03:06:12.683Z,0.00
2024-03-04T03:06:35.630Z,0.00
2024-03-04T03:06:57.965Z,0.00
2024-03-04T03:07:33.219Z,0.00
2024-03-04T03:08:05.924Z,0.00
2024-03-04T03:08:37.079Z,0.00
2024-03-04T03:09:14.111Z,0.00
2024-03-04T03:09:46.108Z,0.00
2024-03-04T03:10:07.310Z,0.00
2024-03-04T03:10:40.220Z,0.00
2024-03-04T03:11:17.232Z,0.00
2024-03-04T03:11:39.749Z,0.00
2024-03-04T03:12:02.124Z,0.00
2024-03-04T03:12:37.167Z,0.00
2024-03-04T03:13:11.319Z,0.00
2024-03-04T03:13:48.516Z,0.00
2024-03-04T03:14:15.498Z,0.00
2024-03-04T03:14:38.242Z,0.00
2024-03-04T03:15:01.827Z,0.00
2024-03-04T03:15:33.114Z,0.00
2024-03-04T03:16:05.564Z,0.00
2024-03-04T03:16:36.823Z,0.00
2024-03-04T03:17:14.832Z,0.00
2024-03-04T03:17:42.450Z,0.00
2024-03-04T03:18:15.112Z,0.00
2024-03-04T03:18:38.917Z,0.00
2024-03-04T03:19:01.229Z,0.00
2024-03-04T03:19:38.537Z,0.00
2024-03-04T03:20:05.093Z,0.00
2024-03-04T03:20:37.326Z,0.00
2024-03-04T03:21:09.346Z,0.00
2024-03-04T03:21:45.297Z,0.00
2024-03-04T03:22:15.573Z,0.00
2024-03-04T03:22:36.913Z,0.00
2024-03-04T03:22:59.858Z,0.00
2024-03-04T03:23:32.962Z,0.00
2024-03-04T03:24:09.125Z,0.00
2024-03-04T03:24:36.773Z,0.00
2024-03-04T03:25:10.424Z,0.00
2024-03-04T03:25:44.435Z,0.00
2024-03-04T03:26:13.028Z,0.00
2024-03-04T03:26:35.665Z,0.00
2024-03-04T03:26:58.004Z,0.00
2024-03-04T03:27:33.003Z,0.00
2024-03-04T03:28:07.335Z,0.00
2024-03-04T03:28:44.855Z,0.00
2024-03-04T03:29:07.354Z,0.00
2024-03-04T03:29:43.616Z,0.00
2024-03-04T03:30:12.984Z,0.00
2024-03-04T03:30:40.318Z,0.00
2024-03-04T03:30:58.974Z,0.00
2024-03-04T03:31:34.447Z,0.00
2024-03-04T03:32:04.825Z,0.00
2024-03-04T03:32:36.957Z,0.00
2024-03-04T03:33:10.583Z,0.00
2024-03-04T03:33:40.997Z,0.00
2024-03-04T03:34:14.468Z,0.00
2024-03-04T03:34:40.111Z,0.00
2024-03-04T03:34:59.455Z,0.00
2024-03-04T03:35:33.725Z,0.00
2024-03-04T03:36:09.127Z,0.00
2024-03-04T03:36:37.029Z,0.00
2024-03-04T03:37:13.324Z,0.00
2024-03-04T03:37:47.262Z,0.00
2024-03-04T03:38:12.857Z,0.00
2024-03-04T03:38:35.473Z,0.00
2024-03-04T03:39:01.542Z,0.00
2024-03-04T03:40:05.959Z,0.00
2024-03-04T03:40:40.775Z,0.00
2024-03-04T03:41:03.436Z,0.00
2024-03-04T03:41:40.843Z,0.00
2024-03-04T03:42:12.766Z,0.00
2024-03-04T03:42:37.224Z,0.00
2024-03-04T03:42:59.141Z,0.00
2024-03-04T03:43:32.776Z,0.00
2024-03-04T03:44:04.853Z,0.00
2024-03-04T03:44:37.917Z,0.00
2024-03-04T03:45:09.069Z,0.00
2024-03-04T03:45:42.194Z,0.00
2024-03-04T03:46:12.952Z,0.00
2024-03-04T03:46:37.603Z,0.00
2024-03-04T03:47:00.910Z,0.00
2024-03-04T03:47:33.023Z,0.00
2024-03-04T03:48:04.863Z,0.00
2024-03-04T03:48:36.753Z,0.00
2024-03-04T03:49:08.543Z,0.00
2024-03-04T03:49:40.656Z,0.00
2024-03-04T03:50:12.730Z,0.00
2024-03-04T03:50:40.301Z,0.00
2024-03-04T03:51:02.627Z,0.00
2024-03-04T03:51:34.104Z,0.00
2024-03-04T03:52:04.996Z,0.00
2024-03-04T03:52:36.879Z,0.00
2024-03-04T03:53:08.671Z,0.00
2024-03-04T03:53:40.883Z,0.00
2024-03-04T03:54:07.994Z,0.00
2024-03-04T03:54:40.037Z,0.00
2024-03-04T03:55:17.271Z,0.00
2024-03-04T03:55:39.866Z,0.00
2024-03-04T03:56:03.294Z,0.00
2024-03-04T03:56:38.543Z,0.00
2024-03-04T03:57:11.118Z,0.00
2024-03-04T03:57:51.613Z,0.00
2024-03-04T03:58:13.524Z,0.00
2024-03-04T03:58:35.833Z,0.00
2024-03-04T03:59:00.683Z,0.00
2024-03-04T03:59:32.967Z,0.00
2024-03-04T04:00:38.802Z,0.00
2024-03-04T04:01:09.775Z,0.00
2024-03-04T04:01:42.373Z,0.00
2024-03-04T04:02:12.919Z,0.00
2024-03-04T04:02:36.807Z,0.00
2024-03-04T04:02:58.009Z,0.00
2024-03-04T04:03:35.696Z,0.00
2024-03-04T04:04:08.344Z,0.00
2024-03-04T04:04:37.218Z,0.00
2024-03-04T04:05:10.214Z,0.00
2024-03-04T04:05:40.736Z,0.00
2024-03-04T04:06:12.810Z,0.00
2024-03-04T04:06:35.921Z,0.00
2024-03-04T04:06:58.780Z,0.00
2024-03-04T04:07:33.185Z,0.00
2024-03-04T04:08:06.117Z,0.00
2024-03-04T04:08:38.603Z,0.00
2024-03-04T04:09:10.468Z,0.00
2024-03-04T04:09:42.532Z,0.00
2024-03-04T04:10:13.124Z,0.00
2024-03-04T04:10:40.212Z,0.00
2024-03-04T04:10:58.334Z,0.00
2024-03-04T04:11:33.842Z,0.00
2024-03-04T04:12:04.797Z,0.00
2024-03-04T04:13:09.022Z,0.00
2024-03-04T04:13:41.078Z,0.00
2024-03-04T04:14:18.515Z,0.00
2024-03-04T04:14:37.225Z,0.00
2024-03-04T04:14:59.749Z,0.00
2024-03-04T04:16:05.286Z,0.00
2024-03-04T04:16:37.401Z,0.00
2024-03-04T04:17:13.297Z,0.00
2024-03-04T04:17:42.407Z,0.00
2024-03-04T04:18:13.919Z,0.00
2024-03-04T04:18:36.621Z,0.00
2024-03-04T04:19:01.422Z,0.00
2024-03-04T04:19:34.298Z,0.00
2024-03-04T04:20:05.415Z,0.00
2024-03-04T04:21:07.532Z,0.00
2024-03-04T04:21:41.073Z,0.00
2024-03-04T04:22:14.377Z,0.00
2024-03-04T04:22:37.291Z,0.00
2024-03-04T04:22:59.502Z,0.00
2024-03-04T04:23:33.136Z,0.00
2024-03-04T04:24:06.127Z,0.00
2024-03-04T04:24:37.283Z,0.00
2024-03-04T04:25:09.249Z,0.00
2024-03-04T04:25:42.389Z,0.00
2024-03-04T04:26:13.571Z,0.00
2024-03-04T04:26:37.821Z,0.00
2024-03-04T04:26:59.013Z,0.00
2024-03-04T04:27:33.788Z,0.00
2024-03-04T04:28:09.219Z,0.00
2024-03-04T04:28:38.045Z,0.00
2024-03-04T04:29:10.483Z,0.00
2024-03-04T04:29:41.020Z,0.00
2024-03-04T04:30:18.062Z,0.00
2024-03-04T04:30:51.892Z,0.00
2024-03-04T04:31:37.217Z,0.00
2024-03-04T04:32:05.040Z,0.00
2024-03-04T04:32:42.315Z,0.00
2024-03-04T04:33:03.602Z,0.00
2024-03-04T04:33:40.688Z,0.00
2024-03-04T04:34:17.059Z,0.00
2024-03-04T04:34:41.296Z,0.00
2024-03-04T04:34:58.355Z,0.00
2024-03-04T04:35:33.904Z,0.00
2024-03-04T04:36:09.125Z,0.00
2024-03-04T04:36:37.118Z,0.00
2024-03-04T04:37:13.292Z,0.00
2024-03-04T04:37:41.950Z,0.00
2024-03-04T04:38:12.732Z,0.00
2024-03-04T04:38:36.065Z,0.00
2024-03-04T04:38:58.366Z,0.00
2024-03-04T04:39:32.775Z,0.00
2024-03-04T04:40:10.877Z,0.00
2024-03-04T04:40:41.190Z,0.00
2024-03-04T04:41:10.769Z,0.00
2024-03-04T04:41:40.648Z,0.00
2024-03-04T04:42:14.778Z,0.00
2024-03-04T04:42:35.213Z,0.00
2024-03-04T04:42:58.931Z,0.00
2024-03-04T04:43:32.979Z,0.00
2024-03-04T04:44:04.780Z,0.00
2024-03-04T04:44:38.009Z,0.00
2024-03-04T04:45:09.048Z,0.00
2024-03-04T04:45:40.712Z,0.00
2024-03-04T04:46:14.051Z,0.00
2024-03-04T04:46:42.055Z,0.00
2024-03-04T04:46:59.093Z,0.00
2024-03-04T04:47:34.083Z,0.00
2024-03-04T04:48:04.580Z,0.00
2024-03-04T04:48:40.920Z,0.00
2024-03-04T04:49:08.545Z,0.00
2024-03-04T04:49:40.696Z,0.00
2024-03-04T04:50:12.719Z,0.00
2024-03-04T04:50:36.112Z,0.00
2024-03-04T04:50:57.955Z,0.00
2024-03-04T04:51:34.326Z,0.00
2024-03-04T04:52:04.820Z,0.00
2024-03-04T04:52:42.050Z,0.00
2024-03-04T04:53:08.738Z,0.00
2024-03-04T04:53:41.002Z,0.00
2024-03-04T04:54:14.004Z,0.00
2024-03-04T04:54:35.592Z,0.00
2024-03-04T04:54:58.050Z,0.00
2024-03-04T04:55:32.685Z,0.00
2024-03-04T04:56:05.936Z,0.00
2024-03-04T04:56:36.740Z,0.00
2024-03-04T04:57:13.011Z,0.00
2024-03-04T04:57:42.100Z,0.00
2024-03-04T04:58:12.678Z,0.00
2024-03-04T04:58:36.888Z,0.00
2024-03-04T04:58:58.022Z,0.00
2024-03-04T04:59:32.734Z,0.00
2024-03-04T05:00:11.166Z,0.00
2024-03-04T05:00:41.411Z,0.00
2024-03-04T05:01:08.696Z,0.00
2024-03-04T05:01:41.084Z,0.00
2024-03-04T05:02:16.977Z,0.00
2024-03-04T05:02:35.790Z,0.00
2024-03-04T05:02:57.941Z,0.00
2024-03-04T05:03:48.157Z,0.00
2024-03-04T05:04:30.761Z,0.00
2024-03-04T05:04:54.300Z,0.00
2024-03-04T05:05:08.754Z,0.00
2024-03-04T05:05:40.788Z,0.00
2024-03-04T05:06:10.836Z,0.00
2024-03-04T05:06:44.998Z,0.00
2024-03-04T05:07:21.280Z,0.00
2024-03-04T05:07:39.888Z,0.00
2024-03-04T05:08:02.145Z,0.00
2024-03-04T05:08:36.762Z,0.00
2024-03-04T05:09:04.280Z,0.00
2024-03-04T05:09:41.024Z,0.00
2024-03-04T05:10:15.141Z,0.00
2024-03-04T05:10:39.126Z,0.00
2024-03-04T05:11:01.081Z,0.00
2024-03-04T05:11:34.350Z,0.00
2024-03-04T05:12:05.174Z,0.00
2024-03-04T05:12:38.433Z,0.00
2024-03-04T05:13:10.212Z,0.00
2024-03-04T05:13:42.726Z,0.00
2024-03-04T05:14:14.211Z,0.00
2024-03-04T05:14:39.889Z,0.00
2024-03-04T05:14:58.143Z,0.00
2024-03-04T05:15:33.306Z,0.00
2024-03-04T05:16:05.133Z,0.00
2024-03-04T05:16:47.804Z,0.00
2024-03-04T05:17:06.196Z,0.00
2024-03-04T05:17:34.924Z,0.00
2024-03-04T05:18:13.352Z,0.00
2024-03-04T05:18:35.910Z,0.00
2024-03-04T05:19:05.081Z,0.00
2024-03-04T05:19:27.148Z,0.00
2024-03-04T05:20:06.249Z,0.00
2024-03-04T05:20:50.333Z,0.00
2024-03-04T05:21:08.774Z,0.00
2024-03-04T05:21:41.704Z,0.00
2024-03-04T05:22:13.019Z,0.00
2024-03-04T05:22:36.492Z,0.00
2024-03-04T05:23:00.037Z,0.00
2024-03-04T05:23:32.727Z,0.00
2024-03-04T05:24:04.772Z,0.00
2024-03-04T05:24:36.657Z,0.00
2024-03-04T05:25:09.084Z,0.00
2024-03-04T05:25:40.835Z,0.00
2024-03-04T05:26:12.746Z,0.00
2024-03-04T05:26:40.954Z,0.00
2024-03-04T05:26:59.395Z,0.00
2024-03-04T05:27:34.026Z,0.00
2024-03-04T05:28:05.132Z,0.00
2024-03-04T05:28:36.800Z,0.00
2024-03-04T05:29:08.616Z,0.00
2024-03-04T05:29:40.825Z,0.00
2024-03-04T05:30:12.792Z,0.00
2024-03-04T05:30:35.532Z,0.00
2024-03-04T05:30:57.703Z,0.00
2024-03-04T05:31:37.066Z,0.00
2024-03-04T05:32:05.933Z,0.00
2024-03-04T05:32:36.585Z,0.00
2024-03-04T05:33:13.159Z,0.00
2024-03-04T05:33:40.549Z,0.00
2024-03-04T05:34:18.026Z,0.00
2024-03-04T05:34:35.818Z,0.00
2024-03-04T05:34:58.138Z,0.00
2024-03-04T05:35:32.527Z,0.00
2024-03-04T05:36:06.036Z,0.00
2024-03-04T05:36:37.915Z,0.00
2024-03-04T05:37:08.735Z,0.00
2024-03-04T05:37:45.018Z,0.00
2024-03-04T05:38:12.741Z,0.00
2024-03-04T05:38:38.359Z,0.00
2024-03-04T05:39:16.994Z,0.00
2024-03-04T05:39:39.630Z,0.00
2024-03-04T05:40:03.886Z,0.00
2024-03-04T05:40:36.802Z,0.00
2024-03-04T05:41:09.148Z,0.00
2024-03-04T05:41:46.205Z,0.00
2024-03-04T05:42:12.903Z,0.00
2024-03-04T05:42:35.726Z,0.00
2024-03-04T05:42:59.445Z,0.00
2024-03-04T05:43:34.093Z,0.00
2024-03-04T05:44:05.256Z,0.00
2024-03-04T05:44:41.345Z,0.00
2024-03-04T05:45:10.090Z,0.00
2024-03-04T05:45:40.992Z,0.00
2024-03-04T05:46:12.769Z,0.00
2024-03-04T05:46:35.549Z,0.00
2024-03-04T05:46:59.274Z,0.00
2024-03-04T05:47:35.278Z,0.00
2024-03-04T05:48:05.320Z,0.00
2024-03-04T05:48:37.026Z,0.00
2024-03-04T05:49:08.913Z,0.00
2024-03-04T05:49:45.412Z,0.00
2024-03-04T05:50:14.391Z,0.00
2024-03-04T05:50:36.933Z,0.00
2024-03-04T05:50:59.440Z,0.00
2024-03-04T05:51:37.089Z,0.00
2024-03-04T05:52:04.928Z,0.00
2024-03-04T05:52:37.032Z,0.00
2024-03-04T05:53:08.741Z,0.00
2024-03-04T05:53:40.809Z,0.00
2024-03-04T05:54:14.373Z,0.00
2024-03-04T05:54:36.906Z,0.00
2024-03-04T05:55:41.025Z,0.00
2024-03-04T05:56:08.353Z,0.00
2024-03-04T05:56:36.918Z,0.00
2024-03-04T05:57:10.487Z,0.00
2024-03-04T05:57:46.288Z,0.00
2024-03-04T05:58:13.253Z,0.00
2024-03-04T05:58:36.262Z,0.00
2024-03-04T05:58:58.930Z,0.00
2024-03-04T05:59:33.153Z,0.00
2024-03-04T06:00:07.642Z,0.00
2024-03-04T06:00:39.325Z,0.00
2024-03-04T06:01:13.308Z,0.00
2024-03-04T06:01:35.625Z,0.00
2024-03-04T06:02:14.577Z,0.00
2024-03-04T06:02:35.541Z,0.00
2024-03-04T06:02:58.206Z,0.00
2024-03-04T06:03:34.026Z,0.00
2024-03-04T06:04:38.068Z,0.00
2024-03-04T06:05:08.725Z,0.00
2024-03-04T06:05:40.718Z,0.00
2024-03-04T06:06:12.491Z,0.00
2024-03-04T06:06:35.093Z,0.00
2024-03-04T06:06:57.523Z,0.00
2024-03-04T06:07:32.793Z,0.00
2024-03-04T06:08:04.822Z,0.00
2024-03-04T06:08:36.633Z,0.00
2024-03-04T06:09:08.508Z,0.00
2024-03-04T06:09:44.926Z,0.00
2024-03-04T06:10:14.318Z,0.00
2024-03-04T06:10:35.414Z,0.00
2024-03-04T06:10:57.900Z,0.00
2024-03-04T06:11:38.430Z,0.00
2024-03-04T06:12:04.757Z,0.00
2024-03-04T06:12:36.748Z,0.36
2024-03-04T06:13:08.747Z,0.00
2024-03-04T06:13:40.684Z,0.36
2024-03-04T06:14:17.087Z,0.85
2024-03-04T06:14:35.702Z,0.85
2024-03-04T06:14:58.200Z,0.85
2024-03-04T06:15:32.835Z,0.85
2024-03-04T06:16:05.112Z,1.22
2024-03-04T06:16:36.933Z,0.85
2024-03-04T06:17:15.292Z,0.85
2024-03-04T06:17:42.121Z,0.85
2024-03-04T06:18:16.979Z,0.85
2024-03-04T06:18:38.119Z,0.85
2024-03-04T06:19:00.576Z,1.22
2024-03-04T06:19:32.944Z,0.85
2024-03-04T06:19:59.599Z,0.85
2024-03-04T06:20:41.656Z,1.22
2024-03-04T06:21:08.909Z,1.22
2024-03-04T06:21:42.302Z,1.22
2024-03-04T06:22:13.061Z,1.22
2024-03-04T06:22:41.591Z,1.22
2024-03-04T06:23:16.826Z,1.22
2024-03-04T06:23:42.000Z,1.71
2024-03-04T06:24:03.296Z,1.71
2024-03-04T06:24:42.179Z,1.71
2024-03-04T06:25:09.026Z,1.22
2024-03-04T06:25:40.872Z,1.71
2024-03-04T06:26:15.279Z,2.08
2024-03-04T06:26:36.724Z,1.71
2024-03-04T06:26:58.309Z,2.08
2024-03-04T06:27:32.910Z,1.71
2024-03-04T06:28:04.892Z,2.08
2024-03-04T06:28:36.850Z,1.71
2024-03-04T06:29:09.998Z,2.57
2024-03-04T06:29:41.078Z,1.71
2024-03-04T06:30:12.930Z,2.57
2024-03-04T06:30:35.931Z,2.08
2024-03-04T06:30:59.668Z,2.08
2024-03-04T06:31:37.259Z,2.08
2024-03-04T06:32:06.059Z,2.57
2024-03-04T06:32:37.138Z,2.08
2024-03-04T06:33:09.999Z,2.08
2024-03-04T06:33:48.906Z,2.08
2024-03-04T06:34:23.579Z,2.94
2024-03-04T06:34:35.985Z,2.57
2024-03-04T06:34:57.716Z,3.43
2024-03-04T06:35:35.038Z,3.43
2024-03-04T06:36:05.211Z,2.94
2024-03-04T06:36:38.102Z,2.94
2024-03-04T06:37:46.181Z,2.94
2024-03-04T06:38:08.820Z,2.94
2024-03-04T06:38:41.092Z,3.43
2024-03-04T06:39:19.317Z,2.94
2024-03-04T06:39:42.807Z,4.28
2024-03-04T06:40:03.228Z,4.28
2024-03-04T06:40:39.246Z,3.79
2024-03-04T06:41:09.346Z,4.28
2024-03-04T06:41:46.598Z,3.43
2024-03-04T06:42:15.527Z,3.79
2024-03-04T06:42:36.900Z,3.79
2024-03-04T06:43:00.797Z,3.79
2024-03-04T06:43:34.923Z,4.28
2024-03-04T06:44:09.639Z,4.28
2024-03-04T06:44:38.733Z,3.43
2024-03-04T06:45:11.794Z,3.79
2024-03-04T06:45:41.231Z,3.79
2024-03-04T06:46:15.464Z,3.79
2024-03-04T06:46:38.596Z,3.79
2024-03-04T06:47:04.188Z,4.77
2024-03-04T06:47:38.759Z,5.14
2024-03-04T06:48:11.251Z,5.14